Rivesville, WV (26588)

5:18 AM EST on February 14, 2016 (GMT -0500)
Rivesville | | Change Station
CLOSE
Current Station
Personal Weather Station
Location: Rivesville, WV
Elevation: 942 ft
Nearby Weather Stations

Elev 942 ft 39.53 °N, 80.13 °W | Updated 7 minutes ago

Overcast
Overcast
-5.8 °F
Feels Like -6 °F
N
0.0
Wind Variable Wind from NNW

Today
High -- | Low -- °F
--% Chance of Precip.
Yesterday
High -- | Low -- °F
Precip. -- in
Pressure 30.43 in
Visibility 5.0 miles
Clouds Scattered Clouds 2100 ft
Overcast 3700 ft
Windchill -6 °F
Dew Point -9 °F
Humidity 87%
Rainfall 0.00 in
Snow Depth Not available.
7:14 AM 5:55 PM
Waxing Crescent, 40% visible
SPECI KCKB 141005Z AUTO 00000KT 5SM -SN SCT021 OVC037 M16/M20 A3043 RMK AO2 P0000 T11561200 TSNO
Pressure 30.43 in
Visibility 5.0 miles
Clouds Scattered Clouds 2100 ft
Overcast 3700 ft
Windchill -6 °F
Dew Point -9 °F
Humidity 87%
Rainfall 0.00 in
Snow Depth Not available.
7:14 AM 5:55 PM
Waxing Crescent, 40% visible
SPECI KCKB 141005Z AUTO 00000KT 5SM -SN SCT021 OVC037 M16/M20 A3043 RMK AO2 P0000 T11561200 TSNO

10-Day Weather Forecast

Almanac

Astronomy

Feb. 14, 2016 Rise Set
Actual Time
Civil Twilight
Nautical Twilight
Astronomical Twilight
Moon
Length of Visible Light
Length of Day
Tomorrow will be .
, % of the Moon is Illuminated

Today's Extremes

State Highs State Lows

Community

WunderPhotos

Upload Photos

1,892,765 photos uploaded!

WunderBlog® & News

Nearby

Air Quality

  Air Quality AQ Index Pollutant
Not available.

Snow Depth

Station Depth Elevation

Earthquake Activity

City Distance Mag. Time & Date
Minimum magnitude displayed is 2.5.

Coastal Water Temperatures

Place Temperature

Stations

Nearby Weather Stations

Station Location Temp. Windchill Dew Point Humidity Wind Precip. Elev Updated Type
                   

Watches & Warnings

There are currently no watches in effect.